Serenade Of The Seas — C6FV8 — position and weather

sailwx.info

Track history (hours):
 
Tides and Currents Weather Stations Pressure Air Temp Water Temp Dewpoint Dewpoint Depression Visibility Wind Speed Wind Dir Waves Ship Positions

Serenade Of The Seas

Operator: Royal Caribbean Cruises Ltd

Last reported at 2015-Jul-02 04:33 UTC. Time now 2015-Jul-02 05:23 UTC.
Position N 59°27' E 024°46'.

Length 294 m; draft 8.6 m.

Type: Ship. MMSI: 311492000.

Date/timePositionNaut miles runAvg speedWind from/ knotsBaromVisibWave heightAir tempDewpointWater temp
2015-Jul-02 04:33N 59°27' E 024°46'1010.1
2015-Jul-02 03:33N 59°37' E 024°40'1914.1
2015-Jul-02 02:11N 59°51' E 025°07'1015.9
2015-Jul-02 01:33N 59°53' E 025°27'1714.8
2015-Jul-02 00:25N 59°56' E 025°60'1416.2
2015-Jul-01 23:33N 60°00' E 026°26'1817.4
2015-Jul-01 22:30N 59°60' E 027°03'8614.4
2015-Jul-01 16:33N 59°56' E 029°55'8 8.5
2015-Jul-01 15:33N 59°57' E 030°11'0 0.0
2015-Jul-01 14:31N 59°57' E 030°12'0 0.0
2015-Jul-01 13:31N 59°57' E 030°11'0 0.0
2015-Jul-01 12:31N 59°57' E 030°11'0 0.0
2015-Jul-01 11:31N 59°57' E 030°11'0 0.0
2015-Jul-01 10:31N 59°57' E 030°11'0 0.0
2015-Jul-01 09:31N 59°57' E 030°11'0 0.0
2015-Jul-01 08:31N 59°57' E 030°12'0 0.0
2015-Jul-01 07:31N 59°57' E 030°12'0 0.0
2015-Jul-01 06:31N 59°57' E 030°12'0 0.0
2015-Jul-01 05:28N 59°57' E 030°12'0 0.0
2015-Jul-01 04:31N 59°57' E 030°12'0 0.0
2015-Jul-01 03:31N 59°57' E 030°11'0 0.0
2015-Jul-01 02:31N 59°57' E 030°12'0 0.0
2015-Jul-01 01:31N 59°57' E 030°11'0 0.0
2015-Jul-01 00:31N 59°57' E 030°11'0 0.0
2015-Jun-30 23:31N 59°57' E 030°11'0 0.0
2015-Jun-30 22:31N 59°57' E 030°11'0 0.0
2015-Jun-30 21:31N 59°57' E 030°11'0 0.0
2015-Jun-30 20:31N 59°57' E 030°12'0 0.0
2015-Jun-30 19:31N 59°57' E 030°12'0 0.0
2015-Jun-30 18:31N 59°57' E 030°12'0 0.0
2015-Jun-30 17:31N 59°57' E 030°12'0 0.0
2015-Jun-30 16:31N 59°57' E 030°12'0 0.0
2015-Jun-30 15:31N 59°57' E 030°12'0 0.0
2015-Jun-30 14:32N 59°57' E 030°11'0 0.0
2015-Jun-30 13:32N 59°57' E 030°11'0 0.0
2015-Jun-30 12:32N 59°57' E 030°11'0 0.0
2015-Jun-30 11:32N 59°57' E 030°11'0 0.0
2015-Jun-30 10:32N 59°57' E 030°11'0 0.0
2015-Jun-30 09:32N 59°57' E 030°11'0 0.0
2015-Jun-30 08:32N 59°57' E 030°12'0 0.0
2015-Jun-30 07:32N 59°57' E 030°12'0 0.0
2015-Jun-30 06:32N 59°57' E 030°12'0 0.0
2015-Jun-30 05:32N 59°57' E 030°12'0 0.0
2015-Jun-30 04:32N 59°57' E 030°12'0 0.0
2015-Jun-30 03:32N 59°57' E 030°12'3 3.4
2015-Jun-30 02:33N 59°56' E 030°05'10 9.7
2015-Jun-30 01:33N 59°59' E 029°46'1211.4
2015-Jun-30 00:32N 60°02' E 029°24'6115.3
2015-Jun-29 20:33N 60°04' E 027°22'1515.0
2015-Jun-29 19:33N 59°58' E 026°54'1615.6
2015-Jun-29 18:33N 59°58' E 026°23'1615.9
2015-Jun-29 17:33N 59°54' E 025°52'1615.9
2015-Jun-29 16:33N 59°54' E 025°20'1615.4
2015-Jun-29 15:33N 60°02' E 024°54'6 0.8
2015-Jun-29 07:21N 60°09' E 024°54'1113.4
2015-Jun-29 06:33N 59°58' E 024°57'1515.4
2015-Jun-29 05:33N 59°46' E 024°38'1717.1
2015-Jun-29 04:34N 59°41' E 024°05'1717.3
2015-Jun-29 03:33N 59°36' E 023°33'1817.8
2015-Jun-29 02:33N 59°30' E 022°60'1717.5
2015-Jun-29 01:33N 59°24' E 022°28'1717.3
2015-Jun-29 00:33N 59°24' E 021°54'1717.1
2015-Jun-28 23:33N 59°25' E 021°20'2317.1
2015-Jun-28 22:14N 59°26' E 020°36'1517.0
2015-Jun-28 21:22N 59°29' E 020°07'61 9.6
2015-Jun-28 15:04N 59°21' E 018°09'0 0.2
2015-Jun-28 12:26N 59°21' E 018°08'0 0.0
2015-Jun-28 11:26N 59°21' E 018°08'0 0.0
2015-Jun-28 10:26N 59°21' E 018°08'0 0.0
2015-Jun-28 09:32N 59°21' E 018°08'0 0.0
2015-Jun-28 08:29N 59°21' E 018°08'0 0.0
2015-Jun-28 07:32N 59°21' E 018°08'0 0.0
2015-Jun-28 06:17N 59°21' E 018°08'0 0.0
2015-Jun-28 05:32N 59°21' E 018°08'0 0.0
2015-Jun-28 04:32N 59°21' E 018°08'0 0.0
2015-Jun-28 03:32N 59°21' E 018°08'0 0.0
2015-Jun-28 02:32N 59°21' E 018°08'0 0.0
2015-Jun-28 01:29N 59°21' E 018°08'0 0.0
2015-Jun-28 00:32N 59°21' E 018°08'0 0.0
2015-Jun-27 23:32N 59°21' E 018°08'0 0.0
2015-Jun-27 22:23N 59°21' E 018°08'0 0.0
2015-Jun-27 21:32N 59°21' E 018°08'0 0.0
2015-Jun-27 20:32N 59°21' E 018°08'0 0.0
2015-Jun-27 19:26N 59°21' E 018°08'0 0.0
2015-Jun-27 18:32N 59°21' E 018°08'0 0.0
2015-Jun-27 17:26N 59°21' E 018°08'0 0.0
2015-Jun-27 16:32N 59°21' E 018°08'0 0.0
2015-Jun-27 15:26N 59°21' E 018°08'0 0.0
2015-Jun-27 14:32N 59°21' E 018°08'0 0.0
2015-Jun-27 13:32N 59°21' E 018°08'0 0.0
2015-Jun-27 12:32N 59°21' E 018°08'0 0.0
2015-Jun-27 11:26N 59°21' E 018°08'0 0.0
2015-Jun-27 10:32N 59°21' E 018°08'0 0.0
2015-Jun-27 09:32N 59°21' E 018°08'0 0.0
2015-Jun-27 08:32N 59°21' E 018°08'1 1.1
2015-Jun-27 07:23N 59°20' E 018°10'11110.7
2015-Jun-26 21:04N 59°26' E 021°47'714.6
2015-Jun-26 20:33N 59°26' E 022°01'3614.7
2015-Jun-26 18:05N 59°36' E 023°11'814.7
2015-Jun-26 17:34N 59°38' E 023°25'1514.6
2015-Jun-26 16:33N 59°42' E 023°53'1514.7
2015-Jun-26 15:33N 59°40' E 024°22'1413.2
2015-Jun-26 14:31N 59°32' E 024°44'5 0.9
2015-Jun-26 08:24N 59°27' E 024°46'0 0.0
2015-Jun-26 04:29N 59°27' E 024°46'1011.0
2015-Jun-26 03:34N 59°37' E 024°40'1514.7
2015-Jun-26 02:34N 59°49' E 024°56'4414.8
2015-Jun-25 23:34N 59°60' E 026°22'1716.4
2015-Jun-25 22:33N 59°60' E 026°56'8614.3
2015-Jun-25 16:33N 59°58' E 029°47'1110.5
2015-Jun-25 15:33N 59°57' E 030°08'1 1.5
2015-Jun-25 14:33N 59°57' E 030°11'0 0.0
2015-Jun-25 13:33N 59°57' E 030°11'0 0.0
2015-Jun-25 12:33N 59°57' E 030°11'0 0.0
2015-Jun-25 11:33N 59°57' E 030°11'0 0.0
2015-Jun-25 10:33N 59°57' E 030°11'0 0.0
2015-Jun-25 09:33N 59°57' E 030°11'0 0.0
2015-Jun-25 08:33N 59°57' E 030°11'0 0.0
2015-Jun-25 07:33N 59°57' E 030°11'0 0.0
2015-Jun-25 06:33N 59°57' E 030°11'0 0.0
2015-Jun-25 05:33N 59°57' E 030°11'0 0.0
2015-Jun-25 04:33N 59°57' E 030°11'0 0.0
2015-Jun-25 03:33N 59°57' E 030°11'0 0.0
2015-Jun-25 02:33N 59°57' E 030°11'0 0.0
2015-Jun-25 01:33N 59°57' E 030°11'0 0.0
2015-Jun-25 00:30N 59°57' E 030°11'0 0.0
2015-Jun-24 23:33N 59°57' E 030°11'0 0.0
2015-Jun-24 22:33N 59°57' E 030°11'0 0.0
2015-Jun-24 21:33N 59°57' E 030°11'0 0.0
2015-Jun-24 20:33N 59°57' E 030°11'0 0.0
2015-Jun-24 19:33N 59°57' E 030°11'0 0.0
2015-Jun-24 18:33N 59°57' E 030°11'0 0.0
2015-Jun-24 17:33N 59°57' E 030°11'0 0.0
2015-Jun-24 16:33N 59°57' E 030°11'0 0.0
2015-Jun-24 15:31N 59°57' E 030°11'0 0.0
2015-Jun-24 14:31N 59°57' E 030°11'0 0.0
2015-Jun-24 13:31N 59°57' E 030°11'0 0.0
2015-Jun-24 12:31N 59°57' E 030°11'0 0.0
2015-Jun-24 11:31N 59°57' E 030°11'0 0.0
2015-Jun-24 10:31N 59°57' E 030°11'0 0.0
2015-Jun-24 09:31N 59°57' E 030°11'0 0.0
2015-Jun-24 08:31N 59°57' E 030°11'0 0.0
2015-Jun-24 07:31N 59°57' E 030°11'0 0.0
2015-Jun-24 06:31N 59°57' E 030°11'0 0.0
2015-Jun-24 05:31N 59°57' E 030°11'0 0.0
2015-Jun-24 04:31N 59°57' E 030°11'0 0.0
2015-Jun-24 03:31N 59°57' E 030°11'0 0.0
2015-Jun-24 02:31N 59°57' E 030°11'0 0.0
2015-Jun-24 01:31N 59°57' E 030°11'0 0.0
2015-Jun-24 00:31N 59°57' E 030°11'0 0.0
2015-Jun-23 23:28N 59°57' E 030°11'0 0.0
2015-Jun-23 22:31N 59°57' E 030°11'0 0.0
2015-Jun-23 21:31N 59°57' E 030°11'0 0.0
2015-Jun-23 20:31N 59°57' E 030°11'0 0.0
2015-Jun-23 19:31N 59°57' E 030°11'0 0.0
2015-Jun-23 19:01N 59°57' E 030°11'97 4.2
2015-Jun-22 19:34N 59°58' E 026°56'1615.7
2015-Jun-22 18:33N 59°58' E 026°25'1717.3
2015-Jun-22 17:34N 59°53' E 025°52'1715.8
2015-Jun-22 16:30N 59°54' E 025°19'  
Track history (hours):
 
Tides and Currents Weather Stations Pressure Air Temp Water Temp Dewpoint Dewpoint Depression Visibility Wind Speed Wind Dir Waves Ship Positions

Serenade Of The Seas

Operator: Royal Caribbean Cruises Ltd

Last reported at 2015-Jul-02 04:33 UTC. Time now 2015-Jul-02 05:23 UTC.
Position N 59°27' E 024°46'.

Length 294 m; draft 8.6 m.

Type: Ship. MMSI: 311492000.

Date/timePositionNaut miles runAvg speedWind from/ knotsBaromVisibWave heightAir tempDewpointWater temp
2015-Jul-02 04:33N 59°27' E 024°46'1010.1
2015-Jul-02 03:33N 59°37' E 024°40'1914.1
2015-Jul-02 02:11N 59°51' E 025°07'1015.9
2015-Jul-02 01:33N 59°53' E 025°27'1714.8
2015-Jul-02 00:25N 59°56' E 025°60'1416.2
2015-Jul-01 23:33N 60°00' E 026°26'1817.4
2015-Jul-01 22:30N 59°60' E 027°03'8614.4
2015-Jul-01 16:33N 59°56' E 029°55'8 8.5
2015-Jul-01 15:33N 59°57' E 030°11'0 0.0
2015-Jul-01 14:31N 59°57' E 030°12'0 0.0
2015-Jul-01 13:31N 59°57' E 030°11'0 0.0
2015-Jul-01 12:31N 59°57' E 030°11'0 0.0
2015-Jul-01 11:31N 59°57' E 030°11'0 0.0
2015-Jul-01 10:31N 59°57' E 030°11'0 0.0
2015-Jul-01 09:31N 59°57' E 030°11'0 0.0
2015-Jul-01 08:31N 59°57' E 030°12'0 0.0
2015-Jul-01 07:31N 59°57' E 030°12'0 0.0
2015-Jul-01 06:31N 59°57' E 030°12'0 0.0
2015-Jul-01 05:28N 59°57' E 030°12'0 0.0
2015-Jul-01 04:31N 59°57' E 030°12'0 0.0
2015-Jul-01 03:31N 59°57' E 030°11'0 0.0
2015-Jul-01 02:31N 59°57' E 030°12'0 0.0
2015-Jul-01 01:31N 59°57' E 030°11'0 0.0
2015-Jul-01 00:31N 59°57' E 030°11'0 0.0
2015-Jun-30 23:31N 59°57' E 030°11'0 0.0
2015-Jun-30 22:31N 59°57' E 030°11'0 0.0
2015-Jun-30 21:31N 59°57' E 030°11'0 0.0
2015-Jun-30 20:31N 59°57' E 030°12'0 0.0
2015-Jun-30 19:31N 59°57' E 030°12'0 0.0
2015-Jun-30 18:31N 59°57' E 030°12'0 0.0
2015-Jun-30 17:31N 59°57' E 030°12'0 0.0
2015-Jun-30 16:31N 59°57' E 030°12'0 0.0
2015-Jun-30 15:31N 59°57' E 030°12'0 0.0
2015-Jun-30 14:32N 59°57' E 030°11'0 0.0
2015-Jun-30 13:32N 59°57' E 030°11'0 0.0
2015-Jun-30 12:32N 59°57' E 030°11'0 0.0
2015-Jun-30 11:32N 59°57' E 030°11'0 0.0
2015-Jun-30 10:32N 59°57' E 030°11'0 0.0
2015-Jun-30 09:32N 59°57' E 030°11'0 0.0
2015-Jun-30 08:32N 59°57' E 030°12'0 0.0
2015-Jun-30 07:32N 59°57' E 030°12'0 0.0
2015-Jun-30 06:32N 59°57' E 030°12'0 0.0
2015-Jun-30 05:32N 59°57' E 030°12'0 0.0
2015-Jun-30 04:32N 59°57' E 030°12'0 0.0
2015-Jun-30 03:32N 59°57' E 030°12'3 3.4
2015-Jun-30 02:33N 59°56' E 030°05'10 9.7
2015-Jun-30 01:33N 59°59' E 029°46'1211.4
2015-Jun-30 00:32N 60°02' E 029°24'6115.3
2015-Jun-29 20:33N 60°04' E 027°22'1515.0
2015-Jun-29 19:33N 59°58' E 026°54'1615.6
2015-Jun-29 18:33N 59°58' E 026°23'1615.9
2015-Jun-29 17:33N 59°54' E 025°52'1615.9
2015-Jun-29 16:33N 59°54' E 025°20'1615.4
2015-Jun-29 15:33N 60°02' E 024°54'6 0.8
2015-Jun-29 07:21N 60°09' E 024°54'1113.4
2015-Jun-29 06:33N 59°58' E 024°57'1515.4
2015-Jun-29 05:33N 59°46' E 024°38'1717.1
2015-Jun-29 04:34N 59°41' E 024°05'1717.3
2015-Jun-29 03:33N 59°36' E 023°33'1817.8
2015-Jun-29 02:33N 59°30' E 022°60'1717.5
2015-Jun-29 01:33N 59°24' E 022°28'1717.3
2015-Jun-29 00:33N 59°24' E 021°54'1717.1
2015-Jun-28 23:33N 59°25' E 021°20'2317.1
2015-Jun-28 22:14N 59°26' E 020°36'1517.0
2015-Jun-28 21:22N 59°29' E 020°07'61 9.6
2015-Jun-28 15:04N 59°21' E 018°09'0 0.2
2015-Jun-28 12:26N 59°21' E 018°08'0 0.0
2015-Jun-28 11:26N 59°21' E 018°08'0 0.0
2015-Jun-28 10:26N 59°21' E 018°08'0 0.0
2015-Jun-28 09:32N 59°21' E 018°08'0 0.0
2015-Jun-28 08:29N 59°21' E 018°08'0 0.0
2015-Jun-28 07:32N 59°21' E 018°08'0 0.0
2015-Jun-28 06:17N 59°21' E 018°08'0 0.0
2015-Jun-28 05:32N 59°21' E 018°08'0 0.0
2015-Jun-28 04:32N 59°21' E 018°08'0 0.0
2015-Jun-28 03:32N 59°21' E 018°08'0 0.0
2015-Jun-28 02:32N 59°21' E 018°08'0 0.0
2015-Jun-28 01:29N 59°21' E 018°08'0 0.0
2015-Jun-28 00:32N 59°21' E 018°08'0 0.0
2015-Jun-27 23:32N 59°21' E 018°08'0 0.0
2015-Jun-27 22:23N 59°21' E 018°08'0 0.0
2015-Jun-27 21:32N 59°21' E 018°08'0 0.0
2015-Jun-27 20:32N 59°21' E 018°08'0 0.0
2015-Jun-27 19:26N 59°21' E 018°08'0 0.0
2015-Jun-27 18:32N 59°21' E 018°08'0 0.0
2015-Jun-27 17:26N 59°21' E 018°08'0 0.0
2015-Jun-27 16:32N 59°21' E 018°08'0 0.0
2015-Jun-27 15:26N 59°21' E 018°08'0 0.0
2015-Jun-27 14:32N 59°21' E 018°08'0 0.0
2015-Jun-27 13:32N 59°21' E 018°08'0 0.0
2015-Jun-27 12:32N 59°21' E 018°08'0 0.0
2015-Jun-27 11:26N 59°21' E 018°08'0 0.0
2015-Jun-27 10:32N 59°21' E 018°08'0 0.0
2015-Jun-27 09:32N 59°21' E 018°08'0 0.0
2015-Jun-27 08:32N 59°21' E 018°08'1 1.1
2015-Jun-27 07:23N 59°20' E 018°10'11110.7
2015-Jun-26 21:04N 59°26' E 021°47'714.6
2015-Jun-26 20:33N 59°26' E 022°01'3614.7
2015-Jun-26 18:05N 59°36' E 023°11'814.7
2015-Jun-26 17:34N 59°38' E 023°25'1514.6
2015-Jun-26 16:33N 59°42' E 023°53'1514.7
2015-Jun-26 15:33N 59°40' E 024°22'1413.2
2015-Jun-26 14:31N 59°32' E 024°44'5 0.9
2015-Jun-26 08:24N 59°27' E 024°46'0 0.0
2015-Jun-26 04:29N 59°27' E 024°46'1011.0
2015-Jun-26 03:34N 59°37' E 024°40'1514.7
2015-Jun-26 02:34N 59°49' E 024°56'4414.8
2015-Jun-25 23:34N 59°60' E 026°22'1716.4
2015-Jun-25 22:33N 59°60' E 026°56'8614.3
2015-Jun-25 16:33N 59°58' E 029°47'1110.5
2015-Jun-25 15:33N 59°57' E 030°08'1 1.5
2015-Jun-25 14:33N 59°57' E 030°11'0 0.0
2015-Jun-25 13:33N 59°57' E 030°11'0 0.0
2015-Jun-25 12:33N 59°57' E 030°11'0 0.0
2015-Jun-25 11:33N 59°57' E 030°11'0 0.0
2015-Jun-25 10:33N 59°57' E 030°11'0 0.0
2015-Jun-25 09:33N 59°57' E 030°11'0 0.0
2015-Jun-25 08:33N 59°57' E 030°11'0 0.0
2015-Jun-25 07:33N 59°57' E 030°11'0 0.0
2015-Jun-25 06:33N 59°57' E 030°11'0 0.0
2015-Jun-25 05:33N 59°57' E 030°11'0 0.0
2015-Jun-25 04:33N 59°57' E 030°11'0 0.0
2015-Jun-25 03:33N 59°57' E 030°11'0 0.0
2015-Jun-25 02:33N 59°57' E 030°11'0 0.0
2015-Jun-25 01:33N 59°57' E 030°11'0 0.0
2015-Jun-25 00:30N 59°57' E 030°11'0 0.0
2015-Jun-24 23:33N 59°57' E 030°11'0 0.0
2015-Jun-24 22:33N 59°57' E 030°11'0 0.0
2015-Jun-24 21:33N 59°57' E 030°11'0 0.0
2015-Jun-24 20:33N 59°57' E 030°11'0 0.0
2015-Jun-24 19:33N 59°57' E 030°11'0 0.0
2015-Jun-24 18:33N 59°57' E 030°11'0 0.0
2015-Jun-24 17:33N 59°57' E 030°11'0 0.0
2015-Jun-24 16:33N 59°57' E 030°11'0 0.0
2015-Jun-24 15:31N 59°57' E 030°11'0 0.0
2015-Jun-24 14:31N 59°57' E 030°11'0 0.0
2015-Jun-24 13:31N 59°57' E 030°11'0 0.0
2015-Jun-24 12:31N 59°57' E 030°11'0 0.0
2015-Jun-24 11:31N 59°57' E 030°11'0 0.0
2015-Jun-24 10:31N 59°57' E 030°11'0 0.0
2015-Jun-24 09:31N 59°57' E 030°11'0 0.0
2015-Jun-24 08:31N 59°57' E 030°11'0 0.0
2015-Jun-24 07:31N 59°57' E 030°11'0 0.0
2015-Jun-24 06:31N 59°57' E 030°11'0 0.0
2015-Jun-24 05:31N 59°57' E 030°11'0 0.0
2015-Jun-24 04:31N 59°57' E 030°11'0 0.0
2015-Jun-24 03:31N 59°57' E 030°11'0 0.0
2015-Jun-24 02:31N 59°57' E 030°11'0 0.0
2015-Jun-24 01:31N 59°57' E 030°11'0 0.0
2015-Jun-24 00:31N 59°57' E 030°11'0 0.0
2015-Jun-23 23:28N 59°57' E 030°11'0 0.0
2015-Jun-23 22:31N 59°57' E 030°11'0 0.0
2015-Jun-23 21:31N 59°57' E 030°11'0 0.0
2015-Jun-23 20:31N 59°57' E 030°11'0 0.0
2015-Jun-23 19:31N 59°57' E 030°11'0 0.0
2015-Jun-23 19:01N 59°57' E 030°11'97 4.2
2015-Jun-22 19:34N 59°58' E 026°56'1615.7
2015-Jun-22 18:33N 59°58' E 026°25'1717.3
2015-Jun-22 17:34N 59°53' E 025°52'1715.8
2015-Jun-22 16:30N 59°54' E 025°19'  

Dump ship's entire track history